Logo AVAMET
Benvolgut visitant, si us plau, ingressa Recuperar contrasenya

Torrevella Patricio Pérez

Dades diàries. Acumulats / Últims 30 dies disponibles

Data Temperatura (°C) Humitat rel. (%) Pressió rel. (hPa) Vent (km/h) Precipitació
Mínima Mitjana Màxima Amplitud
tèrmica
Mínima Mitjana Màxima Mínima Mitjana Màxima Predom. Mitjana Ràfega
màxima
Total
(mm)
Índex-n
Mínima Mitjana Màxima Mínima Mitjana Màxima n
0 a 1
P0 max
mm 5'
Dades mensuals acumulades fins l'últim dia disponible
08/2019 22,2 24,6 26,6 26,9 27,7 29,5 35,4 13,2 23 78 97 1.008 1.014 1.020   6,4 43,5 15,2
Dades anuals acumulades fins l'últim dia disponible
2019 4,6 16,1 26,6 19,1 12,3 22,3 35,7 31,1 0 72 99 995 1.017 1.034   7,0 75,6 233,8
Últims 30 dies disponibles
23-08-2019 22,2     25,4     28,0 5,8 64 77 89 1.017 1.019 1.020 S 6,3 27,4 0,0
22-08-2019 22,6     25,5     28,2 5,6 64 76 85 1.018 1.019 1.020 SSE 6,9 27,4 0,0
21-08-2019 24,3     25,9     27,8 3,5 61 78 93 1.017 1.018 1.019 ENE 12,4 37,0 15,2 0,43 3,00
20-08-2019 26,1     27,3     29,3 3,2 71 80 86 1.013 1.015 1.018 E 8,2 38,6 0,0
19-08-2019 24,1     27,3     29,8 5,7 61 79 91 1.011 1.013 1.014 SSE 5,2 27,4 0,0
18-08-2019 23,6     26,8     29,5 5,9 74 87 97 1.010 1.012 1.013 S 4,7 20,9 0,0
17-08-2019 23,7     26,4     28,3 4,6 77 86 93 1.012 1.015 1.016 S 4,7 17,7 0,0
16-08-2019 23,7     26,4     28,4 4,7 70 80 88 1.015 1.017 1.018 SE 5,5 25,7 0,0
15-08-2019 24,1     26,4     28,4 4,3 72 81 90 1.016 1.017 1.018 SE 4,7 22,5 0,0
14-08-2019 23,2     25,6     27,7 4,5 71 78 86 1.017 1.018 1.020 S 5,7 27,4 0,0
13-08-2019 25,4     26,5     28,3 2,9 59 74 85 1.015 1.017 1.019 ENE 12,2 40,2 0,0
12-08-2019 26,0     27,5     32,1 6,1 23 66 89 1.010 1.013 1.016 S 10,8 43,5 0,0
11-08-2019 26,3     27,5     29,7 3,4 78 87 93 1.011 1.013 1.014 ESE 5,5 24,1 0,0
10-08-2019 26,6     29,1     35,4 8,8 36 70 89 1.012 1.014 1.015 S 5,7 30,6 0,0
09-08-2019 25,3     28,6     32,2 6,9 44 69 85 1.010 1.012 1.013 SSO 4,8 22,5 0,0
08-08-2019 25,8     28,4     30,9 5,1 40 72 94 1.010 1.012 1.013 S 5,0 22,5 0,0
07-08-2019 25,5     28,3     32,1 6,6 52 76 91 1.008 1.010 1.012 SSE 4,5 17,7 0,0
06-08-2019 25,4     27,4     30,0 4,6 68 82 90 1.008 1.011 1.013 SSE 5,3 25,7 0,0
05-08-2019 25,2     27,0     29,1 3,9 75 84 90 1.011 1.013 1.015 SE 4,7 24,1 0,0
04-08-2019 23,8     26,3     28,6 4,8 72 81 89 1.012 1.013 1.015 S 5,6 20,9 0,0
03-08-2019 24,7     26,3     28,1 3,4 74 82 87 1.012 1.014 1.015 SE 5,6 22,5 0,0
02-08-2019 24,1     26,1     27,9 3,8 71 82 86 1.012 1.013 1.015 SSE 6,2 24,1 0,0
01-08-2019 23,7     26,2     29,4 5,7 51 73 84 1.008 1.012 1.014 SSE 7,4 38,6 0,0
31-07-2019 25,3     26,3     27,8 2,5 68 77 83 1.011 1.014 1.016 ENE 14,4 48,3 0,0
30-07-2019 23,6     25,9     28,1 4,5 70 80 88 1.011 1.012 1.014 SE 6,1 24,1 0,0
29-07-2019 23,5     25,4     27,7 4,2 68 80 88 1.009 1.010 1.011 S 5,9 25,7 0,0
28-07-2019 25,3     27,3     30,8 5,5 40 62 83 1.007 1.009 1.011 SSO 7,9 33,8 0,0
27-07-2019 24,9     29,1     34,1 9,2 22 54 87 1.003 1.006 1.007 SO 8,6 40,2 0,0
26-07-2019 24,3     27,4     30,9 6,6 55 79 89 1.006 1.009 1.013 SSE 5,5 29,0 0,0
25-07-2019 23,9     26,9     29,8 5,9 45 73 88 1.012 1.013 1.015 SSE 6,9 32,2 0,0
Últims 13 mesos disponibles
07/2019 22,6 24,2 25,9 26,5 25,7 29,5 35,7 13,1 54 75 86 1.006 1.013 1.019 SSE 7,2 48,3 0,6
06/2019 16,3 20,0 24,2 22,7 21,6 25,6 32,9 16,6 55 73 86 1.008 1.014 1.022 SSE 7,5 49,9 0,0
05/2019 13,6 16,7 19,6 19,3 18,4 22,2 27,9 14,3 49 75 84 1.006 1.015 1.025 ESE 6,9 49,9 1,8
04/2019 10,5 13,3 15,8 16,0 15,6 19,4 25,7 15,2 49 73 94 1.000 1.013 1.025 SSO 8,0 75,6 186,2
03/2019 8,1 11,2 14,2 14,6 13,9 18,2 25,1 17,0 55 71 90 1.011 1.022 1.030 SSO 6,6 46,7 25,8
02/2019 5,9 9,6 12,4 13,8 13,8 17,2 22,3 16,4 35 64 82 997 1.024 1.032 SO 6,9 57,9 3,6
01/2019 4,6 8,7 13,3 12,8 12,3 16,5 21,2 16,6 42 63 84 1.003 1.020 1.031 O 6,2 51,5 0,6
12/2018 8,1 10,9 15,0 14,3 14,8 18,5 23,6 15,5 55 73 86 1.010 1.025 1.032 OSO 5,3 69,2 5,4
11/2018 9,4 12,8 16,7 15,6 15,7 19,1 21,0 11,6 55 73 91 1.000 1.015 1.022 OSO 7,0 53,0 133,0
10/2018 10,3 17,0 21,7 20,1 15,4 23,2 26,2 15,9 43 72 87 1.000 1.014 1.025 7,6 52,0 31,6
09/2018 18,4 22,7 25,3 25,3 25,1 27,9 30,8 12,4 61 77 84 1.012 1.018 1.026 48,0 52,6
08/2018 22,2 24,9 27,8 27,3 28,3 29,8 33,2 11,0 61 75 83 983 1.014 1.020 40,0 5,0
07/2018 22,1 23,7 25,7 26,3 27,3 29,0 33,2 11,1 52 71 82 1.009 1.015 1.019 42,0 0,0
Tots els anys disponibles
2018 4,3 15,9 27,8 18,9 11,6 22,1 33,2 28,9 43 70 91 983 1.016 1.033 OSO 1,5 72,0 360,4
2017 1,1 16,2 27,6 19,3 7,1 22,3 33,6 32,5 37 71 89 1.000 1.018 1.036 SSO 0,1 71,0 219,0
2016 5,4 16,4 25,7 19,4 12,6 22,3 36,1 30,7 36 71 90 998 1.018 1.037 71,0 274,2
2015 4,2 16,3 23,6 19,4 22,4 22,4 36,6 32,4 59 70 77 1.014 1.019 1.030 82,0 219,0
2014 5,5 16,2 26,3 19,2 11,7 22,2 33,6 28,1 33 69 89 993 1.016 1.033 69,0 240,4
2013 5,0 16,1 19,9 19,0 19,9 22,1 32,8 27,8 57 68 76 993 1.014 1.025 71,0 268,6
Temperatura (°C)
Humitat relativa (%)
Velocitat del vent i ràfega màxima (km/h)
Direcció del vent (°)
Pressió (hPa)
Precipitació (mm)
Nota sobre les dades: s'avisa a l'usuari de la provisionalitat i no oficialitat d'aquestes dades
Logo AVAMET blanc
Web allotjada a Sollutia
Llicència de Creative CommonsLa web d'AVAMET i els seus continguts estan subjectes a una llicència de
Reconeixement - No Comercial - Compartir igual
Properes estacions: Altea - Club Nàutic d'Altea (Soci), Ares del Maestrat (Ajuntament Soci),      - - - - -      Últimes estacions: Catadau - Urb. Lloma Molina (Inforatge), Ontinyent - El Pilar (Soci) - - -